createdAt,value
2018-05-04T00:00:52.032Z,8.20
2018-05-04T00:03:20.273Z,8.20
2018-05-04T00:05:48.505Z,8.20
2018-05-04T00:08:16.758Z,8.10
2018-05-04T00:10:44.997Z,8.10
2018-05-04T00:13:13.265Z,8.00
2018-05-04T00:15:41.541Z,8.10
2018-05-04T00:18:09.857Z,8.00
2018-05-04T00:20:38.016Z,8.00
2018-05-04T00:23:06.275Z,7.90
2018-05-04T00:25:34.551Z,7.90
2018-05-04T00:28:02.813Z,7.90
2018-05-04T00:30:31.818Z,7.90
2018-05-04T00:33:00.067Z,7.80
2018-05-04T00:35:28.313Z,7.80
2018-05-04T00:37:56.603Z,7.70
2018-05-04T00:40:24.837Z,7.70
2018-05-04T00:42:53.075Z,7.70
2018-05-04T00:45:22.078Z,7.70
2018-05-04T00:47:51.085Z,7.70
2018-05-04T00:50:19.334Z,7.70
2018-05-04T00:52:47.687Z,7.60
2018-05-04T00:55:15.904Z,7.60
2018-05-04T00:57:44.912Z,7.30
2018-05-04T01:00:13.170Z,7.40
2018-05-04T01:02:42.217Z,7.20
2018-05-04T01:05:10.469Z,7.20
2018-05-04T01:07:38.715Z,7.30
2018-05-04T01:10:07.739Z,7.20
2018-05-04T01:12:35.984Z,7.20
2018-05-04T01:15:05.003Z,7.30
2018-05-04T01:17:33.253Z,7.20
2018-05-04T01:20:02.285Z,7.20
2018-05-04T01:22:30.523Z,7.20
2018-05-04T01:24:59.568Z,7.20
2018-05-04T01:27:27.783Z,7.20
2018-05-04T01:29:56.803Z,7.10
2018-05-04T01:32:25.057Z,7.10
2018-05-04T01:34:54.107Z,7.10
2018-05-04T01:37:22.344Z,7.00
2018-05-04T01:39:50.621Z,7.10
2018-05-04T01:42:18.898Z,7.10
2018-05-04T01:44:47.907Z,7.10
2018-05-04T01:47:16.150Z,7.10
2018-05-04T01:49:45.169Z,7.00
2018-05-04T01:52:13.412Z,7.00
2018-05-04T01:54:42.428Z,6.90
2018-05-04T01:57:10.666Z,6.90
2018-05-04T01:59:38.922Z,6.90
2018-05-04T02:02:07.158Z,6.90
2018-05-04T02:04:35.420Z,7.00
2018-05-04T02:07:04.440Z,7.10
2018-05-04T02:09:32.679Z,7.00
2018-05-04T02:12:01.690Z,6.90
2018-05-04T02:14:29.946Z,6.90
2018-05-04T02:16:58.958Z,6.80
2018-05-04T02:19:27.201Z,6.80
2018-05-04T02:21:55.452Z,6.80
2018-05-04T02:24:23.704Z,6.80
2018-05-04T02:26:51.933Z,6.90
2018-05-04T02:29:20.176Z,6.90
2018-05-04T02:31:48.421Z,6.90
2018-05-04T02:34:16.676Z,7.00
2018-05-04T02:36:45.687Z,6.80
2018-05-04T02:39:13.932Z,6.80
2018-05-04T02:41:42.955Z,6.80
2018-05-04T02:44:11.269Z,6.80
2018-05-04T02:46:39.540Z,6.90
2018-05-04T02:49:07.853Z,6.80
2018-05-04T02:51:36.108Z,6.80
2018-05-04T02:54:04.385Z,6.80
2018-05-04T02:56:32.613Z,6.80
2018-05-04T02:59:00.876Z,6.80
2018-05-04T03:01:29.878Z,6.80
2018-05-04T03:03:58.141Z,6.70
2018-05-04T03:06:27.157Z,6.80
2018-05-04T03:08:55.427Z,6.80
2018-05-04T03:11:23.665Z,6.70
2018-05-04T03:13:51.918Z,6.70
2018-05-04T03:16:20.157Z,6.70
2018-05-04T03:18:48.412Z,6.80
2018-05-04T03:21:17.532Z,6.80
2018-05-04T03:23:45.779Z,6.80
2018-05-04T03:26:14.792Z,6.70
2018-05-04T03:28:43.040Z,6.70
2018-05-04T03:31:11.311Z,6.70
2018-05-04T03:33:39.577Z,6.60
2018-05-04T03:36:07.825Z,6.60
2018-05-04T03:38:37.183Z,6.60
2018-05-04T03:41:06.198Z,6.80
2018-05-04T03:43:34.439Z,6.80
2018-05-04T03:46:03.469Z,6.70
2018-05-04T03:48:31.708Z,6.70
2018-05-04T03:51:00.733Z,6.70
2018-05-04T03:53:28.968Z,6.60
2018-05-04T03:55:57.215Z,6.70
2018-05-04T03:58:37.685Z,6.70
2018-05-04T04:01:17.955Z,6.80
2018-05-04T04:03:58.273Z,6.70
2018-05-04T04:06:26.528Z,6.60
2018-05-04T04:08:54.783Z,6.60
2018-05-04T04:11:23.022Z,6.60
2018-05-04T04:13:51.276Z,6.60
2018-05-04T04:16:19.526Z,6.70
2018-05-04T04:18:48.728Z,6.70
2018-05-04T04:21:17.742Z,6.60
2018-05-04T04:23:46.000Z,6.70
2018-05-04T04:26:15.012Z,6.70
2018-05-04T04:28:43.269Z,6.70
2018-05-04T04:31:12.275Z,6.60
2018-05-04T04:33:40.540Z,6.60
2018-05-04T04:36:08.790Z,6.60
2018-05-04T04:38:37.832Z,6.60
2018-05-04T04:41:06.226Z,6.60
2018-05-04T04:43:34.623Z,6.70
2018-05-04T04:46:02.881Z,6.70
2018-05-04T04:48:31.150Z,6.80
2018-05-04T04:50:59.396Z,6.90
2018-05-04T04:53:27.642Z,7.00
2018-05-04T04:55:56.649Z,7.10
2018-05-04T04:58:25.712Z,7.20
2018-05-04T05:00:53.949Z,7.10
2018-05-04T05:03:22.963Z,7.20
2018-05-04T05:05:51.208Z,7.20
2018-05-04T05:08:19.481Z,7.60
2018-05-04T05:10:48.465Z,8.50
2018-05-04T05:13:16.716Z,8.50
2018-05-04T05:15:44.959Z,8.80
2018-05-04T05:18:13.234Z,9.00
2018-05-04T05:20:41.517Z,8.60
2018-05-04T05:23:13.801Z,8.50
2018-05-04T05:25:42.803Z,8.80
2018-05-04T05:28:11.128Z,8.80
2018-05-04T05:30:39.515Z,8.70
2018-05-04T05:33:07.769Z,8.80
2018-05-04T05:35:36.060Z,8.90
2018-05-04T05:38:04.564Z,8.80
2018-05-04T05:40:32.847Z,8.90
2018-05-04T05:43:01.141Z,9.40
2018-05-04T05:45:29.405Z,9.40
2018-05-04T05:47:57.657Z,9.30
2018-05-04T05:50:25.914Z,9.10
2018-05-04T05:52:54.186Z,9.30
2018-05-04T05:55:22.463Z,9.40
2018-05-04T05:57:51.462Z,9.90
2018-05-04T06:00:19.723Z,9.80
2018-05-04T06:02:48.738Z,10.30
2018-05-04T06:05:17.008Z,10.20
2018-05-04T06:07:45.263Z,10.00
2018-05-04T06:10:14.286Z,10.10
2018-05-04T06:12:42.538Z,10.10
2018-05-04T06:15:10.799Z,10.10
2018-05-04T06:17:39.058Z,10.10
2018-05-04T06:20:07.335Z,10.30
2018-05-04T06:22:35.638Z,10.60
2018-05-04T06:25:04.665Z,10.70
2018-05-04T06:27:32.900Z,10.70
2018-05-04T06:30:01.931Z,10.70
2018-05-04T06:32:30.190Z,10.70
2018-05-04T06:34:58.525Z,11.00
2018-05-04T06:37:26.802Z,11.20
2018-05-04T06:39:56.567Z,11.50
2018-05-04T06:42:25.053Z,11.50
2018-05-04T06:44:53.419Z,11.40
2018-05-04T06:47:21.788Z,11.50
2018-05-04T06:49:50.832Z,11.90
2018-05-04T06:52:19.620Z,11.80
2018-05-04T06:54:47.880Z,11.80
2018-05-04T06:57:16.176Z,12.10
2018-05-04T06:59:44.440Z,12.40
2018-05-04T07:02:12.820Z,12.60
2018-05-04T07:04:41.070Z,12.70
2018-05-04T07:07:10.314Z,13.00
2018-05-04T07:09:38.572Z,12.90
2018-05-04T07:12:06.827Z,13.20
2018-05-04T07:14:35.133Z,13.00
2018-05-04T07:17:03.407Z,13.40
2018-05-04T07:19:31.756Z,13.70
2018-05-04T07:22:00.112Z,13.90
2018-05-04T07:24:28.370Z,14.30
2018-05-04T07:26:57.420Z,13.70
2018-05-04T07:29:25.676Z,13.70
2018-05-04T07:31:53.945Z,14.70
2018-05-04T07:34:22.966Z,14.30
2018-05-04T07:36:51.353Z,14.20
2018-05-04T07:39:19.645Z,14.60
2018-05-04T07:41:47.896Z,14.90
2018-05-04T07:44:16.172Z,15.60
2018-05-04T07:46:44.451Z,15.70
2018-05-04T07:49:12.717Z,16.30
2018-05-04T07:51:41.030Z,16.30
2018-05-04T07:54:09.297Z,15.50
2018-05-04T07:56:37.572Z,15.50
2018-05-04T07:59:05.845Z,15.70
2018-05-04T08:01:34.137Z,15.70
2018-05-04T08:04:02.408Z,16.10
2018-05-04T08:06:30.671Z,16.40
2018-05-04T08:08:58.945Z,16.80
2018-05-04T08:11:27.238Z,15.90
2018-05-04T08:13:55.555Z,16.70
2018-05-04T08:16:23.835Z,17.00
2018-05-04T08:18:52.150Z,17.40
2018-05-04T08:21:20.400Z,17.20
2018-05-04T08:23:48.656Z,17.20
2018-05-04T08:26:16.975Z,17.40
2018-05-04T08:28:45.196Z,16.50
2018-05-04T08:31:13.456Z,17.50
2018-05-04T08:33:41.733Z,16.50
2018-05-04T08:36:10.756Z,16.30
2018-05-04T08:38:39.024Z,16.30
2018-05-04T08:41:07.289Z,16.90
2018-05-04T08:43:35.569Z,17.90
2018-05-04T08:46:03.844Z,17.60
2018-05-04T08:48:33.767Z,17.80
2018-05-04T08:51:02.111Z,17.80
2018-05-04T08:53:30.316Z,16.80
2018-05-04T08:55:58.595Z,17.20
2018-05-04T08:58:26.908Z,17.60
2018-05-04T09:00:55.203Z,17.30
2018-05-04T09:03:23.458Z,16.60
2018-05-04T09:05:51.701Z,16.70
2018-05-04T09:08:20.010Z,17.60
2018-05-04T09:10:48.236Z,16.60
2018-05-04T09:13:16.526Z,16.60
2018-05-04T09:15:45.673Z,17.10
2018-05-04T09:18:14.893Z,17.10
2018-05-04T09:20:43.968Z,17.40
2018-05-04T09:23:12.234Z,17.50
2018-05-04T09:25:45.276Z,17.40
2018-05-04T09:28:13.551Z,16.90
2018-05-04T09:30:41.906Z,17.30
2018-05-04T09:33:10.109Z,17.80
2018-05-04T09:35:38.384Z,17.60
2018-05-04T09:38:06.638Z,17.70
2018-05-04T09:40:35.784Z,17.80
2018-05-04T09:43:04.059Z,17.80
2018-05-04T09:45:32.437Z,17.80
2018-05-04T09:48:00.733Z,17.10
2018-05-04T09:50:29.090Z,18.30
2018-05-04T09:52:57.538Z,18.30
2018-05-04T09:55:25.789Z,17.20
2018-05-04T09:57:54.817Z,17.90
2018-05-04T10:00:23.855Z,17.60
2018-05-04T10:02:52.112Z,17.60
2018-05-04T10:05:20.368Z,17.90
2018-05-04T10:07:48.629Z,18.30
2018-05-04T10:10:16.893Z,18.30
2018-05-04T10:12:45.155Z,18.10
2018-05-04T10:15:14.183Z,18.20
2018-05-04T10:17:42.440Z,18.10
2018-05-04T10:20:10.715Z,18.40
2018-05-04T10:22:38.983Z,18.90
2018-05-04T10:25:08.099Z,19.40
2018-05-04T10:27:36.356Z,19.40
2018-05-04T10:30:04.781Z,18.80
2018-05-04T10:32:33.088Z,19.30
2018-05-04T10:35:01.333Z,19.80
2018-05-04T10:37:30.365Z,19.60
2018-05-04T10:39:59.409Z,19.10
2018-05-04T10:42:27.688Z,19.00
2018-05-04T10:44:55.938Z,18.50
2018-05-04T10:47:24.186Z,18.50
2018-05-04T10:49:53.336Z,18.50
2018-05-04T10:52:21.714Z,18.60
2018-05-04T10:54:49.984Z,18.80
2018-05-04T10:57:18.393Z,18.50
2018-05-04T10:59:47.248Z,19.10
2018-05-04T11:02:15.522Z,19.90
2018-05-04T11:04:43.785Z,19.90
2018-05-04T11:07:12.065Z,19.30
2018-05-04T11:09:40.431Z,19.60
2018-05-04T11:12:08.686Z,19.80
2018-05-04T11:14:37.705Z,18.90
2018-05-04T11:17:05.953Z,18.90
2018-05-04T11:19:35.088Z,19.90
2018-05-04T11:22:03.380Z,19.90
2018-05-04T11:24:31.634Z,19.10
2018-05-04T11:26:59.928Z,18.80
2018-05-04T11:29:28.192Z,18.40
2018-05-04T11:31:56.507Z,19.50
2018-05-04T11:34:24.830Z,19.90
2018-05-04T11:36:53.109Z,19.00
2018-05-04T11:39:21.364Z,19.60
2018-05-04T11:41:49.706Z,20.20
2018-05-04T11:44:18.006Z,20.30
2018-05-04T11:46:47.051Z,20.20
2018-05-04T11:49:15.334Z,20.20
2018-05-04T11:51:43.609Z,20.30
2018-05-04T11:54:11.848Z,20.10
2018-05-04T11:56:40.137Z,20.10
2018-05-04T11:59:09.159Z,20.40
2018-05-04T12:01:37.590Z,20.40
2018-05-04T12:04:06.733Z,19.30
2018-05-04T12:06:35.020Z,19.30
2018-05-04T12:09:03.317Z,20.10
2018-05-04T12:11:31.664Z,20.30
2018-05-04T12:13:59.951Z,19.90
2018-05-04T12:16:28.318Z,20.10
2018-05-04T12:18:56.604Z,19.40
2018-05-04T12:21:24.893Z,19.70
2018-05-04T12:23:53.184Z,20.10
2018-05-04T12:26:22.214Z,20.00
2018-05-04T12:28:50.514Z,20.00
2018-05-04T12:31:20.570Z,20.60
2018-05-04T12:33:48.849Z,20.80
2018-05-04T12:36:17.891Z,20.20
2018-05-04T12:38:46.184Z,20.20
2018-05-04T12:41:14.564Z,20.30
2018-05-04T12:43:42.818Z,20.40
2018-05-04T12:46:11.084Z,20.80
2018-05-04T12:48:39.401Z,20.50
2018-05-04T13:00:07.272Z,20.90
2018-05-04T13:02:35.528Z,21.30
2018-05-04T13:05:03.786Z,21.30
2018-05-04T13:07:32.038Z,20.40
2018-05-04T13:10:00.332Z,20.70
2018-05-04T13:12:28.644Z,21.20
2018-05-04T13:18:11.031Z,21.30
2018-05-04T13:20:39.557Z,21.60
2018-05-04T13:23:08.613Z,20.50
2018-05-04T13:25:36.898Z,20.50
2018-05-04T13:28:05.154Z,20.60
2018-05-04T13:30:33.421Z,21.40
2018-05-04T13:33:01.716Z,20.60
2018-05-04T13:35:29.967Z,20.90
2018-05-04T13:37:58.355Z,20.20
2018-05-04T13:40:26.877Z,21.00
2018-05-04T13:42:55.940Z,21.90
2018-05-04T13:45:24.327Z,21.90
2018-05-04T13:47:52.600Z,21.60
2018-05-04T13:50:20.964Z,21.20
2018-05-04T13:52:49.243Z,21.60
2018-05-04T13:55:17.519Z,21.80
2018-05-04T13:57:45.830Z,21.30
2018-05-04T14:00:14.888Z,20.70
2018-05-04T14:02:43.150Z,20.70
2018-05-04T14:05:11.415Z,20.70
2018-05-04T14:07:39.774Z,20.70
2018-05-04T14:10:10.246Z,20.70
2018-05-04T14:12:38.559Z,20.70
2018-05-04T14:15:06.848Z,20.80
2018-05-04T14:17:35.928Z,20.90
2018-05-04T14:20:05.455Z,20.40
2018-05-04T14:22:34.518Z,20.40
2018-05-04T14:25:02.774Z,20.40
2018-05-04T14:27:31.019Z,20.20
2018-05-04T14:30:01.232Z,20.40
2018-05-04T14:32:32.408Z,20.90
2018-05-04T14:35:01.579Z,21.00
2018-05-04T14:37:30.557Z,21.30
2018-05-04T14:39:58.828Z,21.20
2018-05-04T14:42:27.852Z,20.80
2018-05-04T14:44:56.123Z,20.70
2018-05-04T14:47:24.467Z,20.60
2018-05-04T14:49:53.505Z,20.60
2018-05-04T14:52:21.934Z,20.60
2018-05-04T14:54:50.467Z,20.80
2018-05-04T14:57:18.866Z,20.70
2018-05-04T14:59:47.102Z,20.60
2018-05-04T15:02:15.372Z,20.70
2018-05-04T15:04:43.624Z,20.90
2018-05-04T15:07:12.685Z,21.00
2018-05-04T15:09:40.949Z,21.00
2018-05-04T15:12:10.087Z,20.50
2018-05-04T15:14:39.097Z,20.90
2018-05-04T15:17:08.282Z,20.70
2018-05-04T15:19:37.348Z,20.90
2018-05-04T15:22:05.656Z,20.80
2018-05-04T15:24:34.713Z,20.70
2018-05-04T15:27:02.977Z,20.60
2018-05-04T15:29:31.264Z,20.60
2018-05-04T15:31:59.507Z,20.50
2018-05-04T15:34:27.838Z,19.90
2018-05-04T15:36:56.080Z,20.80
2018-05-04T15:39:24.352Z,20.60
2018-05-04T15:41:52.641Z,20.30
2018-05-04T15:44:20.897Z,20.30
2018-05-04T15:46:49.151Z,20.30
2018-05-04T15:49:19.887Z,20.10
2018-05-04T15:51:53.763Z,20.00
2018-05-04T15:54:22.238Z,19.90
2018-05-04T15:56:50.480Z,20.10
2018-05-04T15:59:18.769Z,19.90
2018-05-04T16:01:47.065Z,19.70
2018-05-04T16:04:15.393Z,19.80
2018-05-04T16:06:43.658Z,19.90
2018-05-04T16:09:12.024Z,20.10
2018-05-04T16:11:40.293Z,20.00
2018-05-04T16:14:09.326Z,19.90
2018-05-04T16:16:37.663Z,19.90
2018-05-04T16:19:06.675Z,19.70
2018-05-04T16:21:34.945Z,19.70
2018-05-04T16:24:04.015Z,19.90
2018-05-04T16:26:32.364Z,19.80
2018-05-04T16:29:01.757Z,19.60
2018-05-04T16:31:29.998Z,19.60
2018-05-04T16:33:58.263Z,19.60
2018-05-04T16:36:27.297Z,19.70
2018-05-04T16:38:55.560Z,19.80
2018-05-04T16:41:24.586Z,19.70
2018-05-04T16:43:52.833Z,19.40
2018-05-04T16:49:28.804Z,19.00
2018-05-04T16:51:57.116Z,19.00
2018-05-04T16:54:25.587Z,18.90
2018-05-04T16:56:54.644Z,18.70
2018-05-04T16:59:22.919Z,18.70
2018-05-04T17:01:51.194Z,18.80
2018-05-04T17:04:20.262Z,18.60
2018-05-04T17:06:48.512Z,18.60
2018-05-04T17:09:18.754Z,18.70
2018-05-04T17:11:47.018Z,18.70
2018-05-04T17:14:15.300Z,18.60
2018-05-04T17:16:43.578Z,18.60
2018-05-04T17:19:11.822Z,18.50
2018-05-04T17:21:40.106Z,18.50
2018-05-04T17:24:08.356Z,18.50
2018-05-04T17:26:36.870Z,18.40
2018-05-04T17:29:05.131Z,18.40
2018-05-04T17:31:33.427Z,18.40
2018-05-04T17:34:01.721Z,18.30
2018-05-04T17:36:30.059Z,18.30
2018-05-04T17:38:58.305Z,18.30
2018-05-04T17:41:27.353Z,18.30
2018-05-04T17:43:55.597Z,18.20
2018-05-04T17:46:23.852Z,18.20
2018-05-04T17:48:52.155Z,18.10
2018-05-04T17:51:20.416Z,18.00
2018-05-04T17:53:48.670Z,18.00
2018-05-04T17:56:17.690Z,17.90
2018-05-04T17:58:45.993Z,17.80
2018-05-04T18:01:14.272Z,17.80
2018-05-04T18:03:42.523Z,17.80
2018-05-04T18:06:10.763Z,17.70
2018-05-04T18:08:39.791Z,17.60
2018-05-04T18:11:08.035Z,17.60
2018-05-04T18:13:37.088Z,17.60
2018-05-04T18:16:05.331Z,17.50
2018-05-04T18:18:33.589Z,17.50
2018-05-04T18:21:02.631Z,17.40
2018-05-04T18:23:30.889Z,17.40
2018-05-04T18:25:59.134Z,17.40
2018-05-04T18:28:28.161Z,17.20
2018-05-04T18:30:56.391Z,17.20
2018-05-04T18:33:25.450Z,17.10
2018-05-04T18:35:53.689Z,17.10
2018-05-04T18:38:22.117Z,17.10
2018-05-04T18:40:50.482Z,17.00
2018-05-04T18:43:18.772Z,16.90
2018-05-04T18:45:47.082Z,16.80
2018-05-04T18:48:16.124Z,16.70
2018-05-04T18:50:44.421Z,16.70
2018-05-04T18:53:12.660Z,16.60
2018-05-04T18:55:40.917Z,16.60
2018-05-04T18:58:09.177Z,16.50
2018-05-04T19:00:38.192Z,16.30
2018-05-04T19:03:12.545Z,16.30
2018-05-04T19:05:40.796Z,16.20
2018-05-04T19:08:09.100Z,16.10
2018-05-04T19:10:37.398Z,16.10
2018-05-04T19:13:05.648Z,16.00
2018-05-04T19:15:33.918Z,16.00
2018-05-04T19:18:02.163Z,15.90
2018-05-04T19:20:30.476Z,15.90
2018-05-04T19:22:58.696Z,15.90
2018-05-04T19:25:27.710Z,15.80
2018-05-04T19:27:56.056Z,15.80
2018-05-04T19:30:24.310Z,15.80
2018-05-04T19:32:52.598Z,15.70
2018-05-04T19:35:21.643Z,15.50
2018-05-04T19:37:49.956Z,15.50
2018-05-04T19:40:18.206Z,15.40
2018-05-04T19:42:46.505Z,15.40
2018-05-04T19:45:14.749Z,15.30
2018-05-04T19:47:42.994Z,15.30
2018-05-04T19:50:12.022Z,15.20
2018-05-04T19:52:40.282Z,15.20
2018-05-04T19:55:08.551Z,15.10
2018-05-04T19:57:37.573Z,14.90
2018-05-04T20:00:05.834Z,14.80
2018-05-04T20:02:34.415Z,14.70
2018-05-04T20:05:02.702Z,14.70
2018-05-04T20:07:30.948Z,14.70
2018-05-04T20:09:59.985Z,14.60
2018-05-04T20:12:28.238Z,14.60
2018-05-04T20:14:56.482Z,14.60
2018-05-04T20:17:25.535Z,14.50
2018-05-04T20:19:53.795Z,14.40
2018-05-04T20:22:22.801Z,14.30
2018-05-04T20:24:51.067Z,14.20
2018-05-04T20:27:20.199Z,14.10
2018-05-04T20:29:48.480Z,14.10
2018-05-04T20:32:16.741Z,14.10
2018-05-04T20:34:45.015Z,14.10
2018-05-04T20:37:13.250Z,14.10
2018-05-04T20:39:41.577Z,14.10
2018-05-04T20:42:09.854Z,14.00
2018-05-04T20:44:38.097Z,13.90
2018-05-04T20:47:06.374Z,13.70
2018-05-04T20:49:34.672Z,13.70
2018-05-04T20:52:02.956Z,13.60
2018-05-04T20:54:31.223Z,13.50
2018-05-04T20:56:59.481Z,13.40
2018-05-04T20:59:27.756Z,13.40
2018-05-04T21:01:56.039Z,13.30
2018-05-04T21:04:24.288Z,13.30
2018-05-04T21:06:52.532Z,13.20
2018-05-04T21:09:21.560Z,13.20
2018-05-04T21:11:49.804Z,13.10
2018-05-04T21:14:18.825Z,13.00
2018-05-04T21:16:47.089Z,13.00
2018-05-04T21:19:16.140Z,12.90
2018-05-04T21:21:44.394Z,12.90
2018-05-04T21:24:12.650Z,12.90
2018-05-04T21:26:40.919Z,12.80
2018-05-04T21:29:09.938Z,12.80
2018-05-04T21:31:38.198Z,12.80
2018-05-04T21:34:06.450Z,12.80
2018-05-04T21:36:35.489Z,12.70
2018-05-04T21:39:03.987Z,12.70
2018-05-04T21:41:32.187Z,12.70
2018-05-04T21:44:01.199Z,12.60
2018-05-04T21:46:29.469Z,12.60
2018-05-04T21:48:58.482Z,12.70
2018-05-04T21:51:27.526Z,12.70
2018-05-04T21:53:56.607Z,12.60
2018-05-04T21:56:24.872Z,12.60
2018-05-04T21:58:53.149Z,12.50
2018-05-04T22:01:21.387Z,12.60
2018-05-04T22:03:49.698Z,12.50
2018-05-04T22:06:18.756Z,12.50
2018-05-04T22:08:46.996Z,12.50
2018-05-04T22:11:15.247Z,12.40
2018-05-04T22:13:43.518Z,12.40
2018-05-04T22:16:11.756Z,12.40
2018-05-04T22:18:40.034Z,12.40
2018-05-04T22:21:08.299Z,12.40
2018-05-04T22:23:37.366Z,12.50
2018-05-04T22:26:05.570Z,12.40
2018-05-04T22:28:34.580Z,12.50
2018-05-04T22:31:02.840Z,12.40
2018-05-04T22:33:31.839Z,12.40
2018-05-04T22:36:00.842Z,12.50
2018-05-04T22:38:29.088Z,12.40
2018-05-04T22:40:58.098Z,12.50
2018-05-04T22:43:27.117Z,12.50
2018-05-04T22:45:55.361Z,12.50
2018-05-04T22:48:24.442Z,12.30
2018-05-04T22:50:52.637Z,12.30
2018-05-04T22:53:21.655Z,12.30
2018-05-04T22:55:49.911Z,12.20
2018-05-04T22:58:18.148Z,12.20
2018-05-04T23:00:46.393Z,12.30
2018-05-04T23:03:14.654Z,12.30
2018-05-04T23:05:42.906Z,12.30
2018-05-04T23:08:11.927Z,12.20
2018-05-04T23:10:40.192Z,12.20
2018-05-04T23:13:08.490Z,12.20
2018-05-04T23:15:36.729Z,12.20
2018-05-04T23:18:05.742Z,12.10
2018-05-04T23:20:33.988Z,12.10
2018-05-04T23:23:03.015Z,12.00
2018-05-04T23:25:31.265Z,12.00
2018-05-04T23:28:00.286Z,11.90
2018-05-04T23:30:28.559Z,11.90
2018-05-04T23:32:56.800Z,11.90
2018-05-04T23:35:25.829Z,11.70
2018-05-04T23:37:54.075Z,11.70
2018-05-04T23:40:23.096Z,11.70
2018-05-04T23:42:51.349Z,11.70
2018-05-04T23:45:20.359Z,11.70
2018-05-04T23:47:48.615Z,11.60
2018-05-04T23:50:17.615Z,11.70
2018-05-04T23:52:45.865Z,11.60
2018-05-04T23:55:14.120Z,11.60
2018-05-04T23:57:42.357Z,11.60
